Time;durP1;ratioP1;P1;durP2;ratioP2;P2;SDS_P1;SDS_P2;PMS_P1;PMS_P2;Temp;Humidity;BMP_temperature;BMP_pressure;BME280_temperature;BME280_humidity;BME280_pressure;Samples;Min_cycle;Max_cycle;Signal;HPM_P1;HPM_P2
2023/04/18 00:01:03;;;;;;;1999.90;999.90;;;6.90;97.40;;;;;;5079327;28;20127;-76
2023/04/18 00:03:28;;;;;;;1999.90;999.90;;;6.90;97.40;;;;;;5054850;28;20039;-77
2023/04/18 00:05:54;;;;;;;1999.90;999.90;;;6.80;97.50;;;;;;5049967;28;20437;-77
2023/04/18 00:08:20;;;;;;;1999.90;999.90;;;6.80;97.60;;;;;;5076302;28;20204;-78
2023/04/18 00:10:46;;;;;;;1999.90;999.90;;;6.90;97.40;;;;;;5049567;28;20379;-77
2023/04/18 00:13:12;;;;;;;1999.90;999.90;;;6.80;97.50;;;;;;5055172;28;20032;-77
2023/04/18 00:15:38;;;;;;;1999.90;999.90;;;6.90;97.30;;;;;;5068599;28;20029;-77
2023/04/18 00:18:04;;;;;;;1999.90;999.90;;;6.90;97.50;;;;;;5069383;28;20084;-77
2023/04/18 00:20:31;;;;;;;1999.90;999.90;;;6.80;96.80;;;;;;5066503;28;20064;-77
2023/04/18 00:22:59;;;;;;;1999.90;999.90;;;6.80;97.20;;;;;;5055294;28;20045;-77
2023/04/18 00:25:25;;;;;;;1999.90;999.90;;;6.70;97.60;;;;;;5049025;28;20060;-77
2023/04/18 00:27:50;;;;;;;1999.90;999.90;;;6.80;97.80;;;;;;5077618;28;20106;-75
2023/04/18 00:30:16;;;;;;;1999.90;999.90;;;6.80;97.60;;;;;;5051096;28;20055;-75
2023/04/18 00:32:42;;;;;;;1999.90;999.90;;;6.70;97.70;;;;;;5071862;28;20676;-75
2023/04/18 00:35:08;;;;;;;1999.90;999.90;;;6.90;97.70;;;;;;5072494;28;20024;-75
2023/04/18 00:37:33;;;;;;;1999.90;999.90;;;6.90;97.60;;;;;;5055840;28;20041;-75
2023/04/18 00:39:59;;;;;;;1999.90;999.90;;;6.90;97.40;;;;;;5068519;28;20047;-74
2023/04/18 00:42:26;;;;;;;1999.90;999.90;;;6.90;97.80;;;;;;5075070;28;20087;-75
2023/04/18 00:44:52;;;;;;;1999.90;999.90;;;6.90;97.30;;;;;;5053741;28;20064;-75
2023/04/18 00:47:18;;;;;;;1999.90;999.90;;;6.90;97.60;;;;;;5077795;28;20055;-75
2023/04/18 00:49:44;;;;;;;1999.90;999.90;;;6.90;97.60;;;;;;5051377;28;20043;-75
2023/04/18 00:52:11;;;;;;;1999.90;999.90;;;6.90;97.50;;;;;;5072931;28;20032;-75
2023/04/18 00:54:37;;;;;;;1999.90;999.90;;;6.90;97.60;;;;;;5072210;28;20025;-74
2023/04/18 00:57:03;;;;;;;1999.90;999.90;;;6.90;97.60;;;;;;5041793;28;20743;-76
2023/04/18 00:59:29;;;;;;;1999.90;999.90;;;6.80;97.50;;;;;;5062916;28;20081;-76
2023/04/18 01:01:55;;;;;;;1999.90;999.90;;;6.80;97.70;;;;;;5071709;28;20039;-77
2023/04/18 01:04:21;;;;;;;1999.90;999.90;;;6.90;97.60;;;;;;5035595;28;20032;-75
2023/04/18 01:06:46;;;;;;;1999.90;999.90;;;6.90;97.60;;;;;;5056441;28;20403;-74
2023/04/18 01:09:12;;;;;;;1999.90;999.90;;;6.80;97.50;;;;;;5048269;28;20074;-75
2023/04/18 01:11:38;;;;;;;1999.90;999.90;;;6.80;97.60;;;;;;5066596;28;20021;-75
2023/04/18 01:14:06;;;;;;;1999.90;999.90;;;6.90;97.70;;;;;;5051595;28;20040;-76
2023/04/18 01:16:32;;;;;;;1999.90;999.90;;;6.90;97.60;;;;;;5069553;28;20046;-74
2023/04/18 01:18:59;;;;;;;1999.90;999.90;;;6.90;97.40;;;;;;5068285;28;20041;-76
2023/04/18 01:21:25;;;;;;;1999.90;999.90;;;6.80;96.90;;;;;;5072497;28;20020;-77
2023/04/18 01:23:52;;;;;;;1999.90;999.90;;;6.70;97.10;;;;;;5069281;28;20041;-76
2023/04/18 01:26:18;;;;;;;1999.90;999.90;;;6.70;97.60;;;;;;5076197;28;20042;-75
2023/04/18 01:28:43;;;;;;;1999.90;999.90;;;6.80;97.70;;;;;;5066291;28;20136;-75
2023/04/18 01:31:09;;;;;;;1999.90;999.90;;;6.80;97.70;;;;;;5063881;28;20142;-75
2023/04/18 01:33:35;;;;;;;1999.90;999.90;;;6.80;97.90;;;;;;5047642;28;20116;-75
2023/04/18 01:36:01;;;;;;;1999.90;999.90;;;6.80;97.70;;;;;;5075197;28;20032;-76
2023/04/18 01:38:26;;;;;;;1999.90;999.90;;;6.90;97.70;;;;;;5050644;28;20478;-77
2023/04/18 01:40:52;;;;;;;1999.90;999.90;;;6.80;97.60;;;;;;5054270;28;20380;-77
2023/04/18 01:43:17;;;;;;;1999.90;999.90;;;6.80;97.60;;;;;;5047972;28;20490;-77
2023/04/18 01:45:43;;;;;;;1999.90;999.90;;;6.70;97.70;;;;;;5051259;28;20037;-76
2023/04/18 01:48:09;;;;;;;1999.90;999.90;;;6.80;97.80;;;;;;5066096;28;20033;-75
2023/04/18 01:50:37;;;;;;;1999.90;999.90;;;6.70;97.70;;;;;;5055320;28;20035;-76
2023/04/18 01:53:03;;;;;;;1999.90;999.90;;;6.70;97.80;;;;;;5052377;28;20032;-76
2023/04/18 01:55:28;;;;;;;1999.90;999.90;;;6.70;97.90;;;;;;5070397;28;20037;-75
2023/04/18 01:57:54;;;;;;;1999.90;999.90;;;6.70;97.90;;;;;;5071591;28;20047;-77
2023/04/18 02:00:20;;;;;;;1999.90;999.90;;;6.70;97.90;;;;;;5050347;28;20131;-77
2023/04/18 02:02:46;;;;;;;1999.90;999.90;;;6.70;97.90;;;;;;5066304;28;20035;-77
2023/04/18 02:05:11;;;;;;;1999.90;999.90;;;6.80;97.90;;;;;;5072768;28;20028;-77
2023/04/18 02:07:37;;;;;;;1999.90;999.90;;;6.70;98.10;;;;;;5054944;28;20035;-75
2023/04/18 02:10:03;;;;;;;1999.90;999.90;;;6.70;97.80;;;;;;5051802;28;20054;-76
2023/04/18 02:12:30;;;;;;;1999.90;999.90;;;6.70;97.40;;;;;;5066011;28;20040;-76
2023/04/18 02:14:56;;;;;;;1999.90;999.90;;;6.50;97.70;;;;;;5072335;28;20157;-77
2023/04/18 02:17:22;;;;;;;1999.90;999.90;;;6.40;98.10;;;;;;5069179;28;20027;-77
2023/04/18 02:19:51;;;;;;;1999.90;999.90;;;6.60;98.40;;;;;;5068399;28;20032;-78
2023/04/18 02:22:17;;;;;;;1999.90;999.90;;;6.60;98.30;;;;;;5072664;28;20045;-75
2023/04/18 02:24:43;;;;;;;1999.90;999.90;;;6.70;98.20;;;;;;5046378;28;20039;-75
2023/04/18 02:27:09;;;;;;;1999.90;999.90;;;6.60;98.30;;;;;;5053907;28;20516;-75
2023/04/18 02:29:35;;;;;;;1999.90;999.90;;;6.60;98.50;;;;;;5064989;28;20028;-75
2023/04/18 02:32:02;;;;;;;1999.90;999.90;;;6.60;98.40;;;;;;5074038;28;20042;-75
2023/04/18 02:34:27;;;;;;;1999.90;999.90;;;6.70;98.30;;;;;;5068456;28;20556;-77
2023/04/18 02:36:53;;;;;;;1999.90;999.90;;;6.60;98.60;;;;;;5058250;28;20029;-73
2023/04/18 02:39:20;;;;;;;1999.90;999.90;;;6.60;98.40;;;;;;5058816;28;20057;-77
2023/04/18 02:41:45;;;;;;;1999.90;999.90;;;6.60;98.50;;;;;;5072290;28;20577;-75
2023/04/18 02:44:11;;;;;;;1999.90;999.90;;;6.60;98.60;;;;;;5020800;28;20029;-75
2023/04/18 02:46:36;;;;;;;1999.90;999.90;;;6.60;98.90;;;;;;5051535;28;20048;-75
2023/04/18 02:49:02;;;;;;;1999.90;999.90;;;6.60;98.70;;;;;;5071569;28;20028;-75
2023/04/18 02:51:28;;;;;;;1999.90;999.90;;;6.60;98.60;;;;;;5049795;28;20040;-75
2023/04/18 02:53:54;;;;;;;1999.90;999.90;;;6.60;98.70;;;;;;5068032;28;20089;-76
2023/04/18 02:56:20;;;;;;;1999.90;999.90;;;6.70;98.60;;;;;;5053914;28;20047;-76
2023/04/18 02:58:47;;;;;;;1999.90;999.90;;;6.70;98.70;;;;;;5069347;28;20040;-75
2023/04/18 03:01:14;;;;;;;1999.90;999.90;;;6.60;98.80;;;;;;5073006;28;20043;-75
2023/04/18 03:03:39;;;;;;;1999.90;999.90;;;6.60;98.80;;;;;;5066408;28;20029;-75
2023/04/18 03:06:05;;;;;;;1999.90;999.90;;;6.70;98.90;;;;;;5049538;28;20034;-75
2023/04/18 03:08:31;;;;;;;1999.90;999.90;;;6.70;98.90;;;;;;5051341;28;20040;-75
2023/04/18 03:10:57;;;;;;;1999.90;999.90;;;6.60;99.00;;;;;;5066149;28;20032;-75
2023/04/18 03:13:22;;;;;;;1999.90;999.90;;;6.60;99.00;;;;;;5048549;28;20037;-76
2023/04/18 03:15:48;;;;;;;1999.90;999.90;;;6.60;98.40;;;;;;5038383;28;20037;-75
2023/04/18 03:18:13;;;;;;;1999.90;999.90;;;6.50;98.40;;;;;;5065499;28;20024;-75
2023/04/18 03:20:39;;;;;;;1999.90;999.90;;;6.50;98.80;;;;;;5069622;28;20085;-75
2023/04/18 03:23:05;;;;;;;1999.90;999.90;;;6.60;98.80;;;;;;5034785;28;20397;-75
2023/04/18 03:25:31;;;;;;;1999.90;999.90;;;6.60;98.70;;;;;;5025417;28;20033;-75
2023/04/18 03:27:57;;;;;;;1999.90;999.90;;;6.60;98.80;;;;;;5026316;28;20122;-75
2023/04/18 03:30:22;;;;;;;1999.90;999.90;;;6.60;99.00;;;;;;5030168;28;20029;-75
2023/04/18 03:32:48;;;;;;;1999.90;999.90;;;6.60;99.00;;;;;;5014235;28;20061;-76
2023/04/18 03:35:14;;;;;;;1999.90;999.90;;;6.60;99.10;;;;;;5026359;28;20081;-75
2023/04/18 03:37:40;;;;;;;1999.90;999.90;;;6.50;99.30;;;;;;5020766;28;20127;-75
2023/04/18 03:40:06;;;;;;;1999.90;999.90;;;6.50;99.40;;;;;;5028909;28;20561;-75
2023/04/18 03:42:32;;;;;;;1999.90;999.90;;;6.50;99.40;;;;;;5024439;28;20060;-75
2023/04/18 03:44:58;;;;;;;1999.90;999.90;;;6.60;99.40;;;;;;5024354;28;20424;-75
2023/04/18 03:47:23;;;;;;;1999.90;999.90;;;6.50;99.40;;;;;;5031456;28;20422;-76
2023/04/18 03:49:49;;;;;;;1999.90;999.90;;;6.50;99.50;;;;;;5035007;28;20440;-77
2023/04/18 03:52:15;;;;;;;1999.90;999.90;;;6.50;99.60;;;;;;5035415;28;20155;-76
2023/04/18 03:54:40;;;;;;;1999.90;999.90;;;6.60;99.70;;;;;;5027763;28;20022;-75
2023/04/18 03:57:06;;;;;;;1999.90;999.90;;;6.60;99.60;;;;;;5037248;28;20243;-75
2023/04/18 03:59:32;;;;;;;1999.90;999.90;;;6.70;99.50;;;;;;5035846;28;20112;-75
2023/04/18 04:01:57;;;;;;;1999.90;999.90;;;6.60;99.30;;;;;;5032114;28;20030;-75
2023/04/18 04:04:23;;;;;;;1999.90;999.90;;;6.60;99.60;;;;;;5035700;28;20038;-76
2023/04/18 04:06:49;;;;;;;1999.90;999.90;;;6.60;99.20;;;;;;5031682;28;20036;-75
2023/04/18 04:09:15;;;;;;;1999.90;999.90;;;6.60;99.40;;;;;;5024362;28;20025;-75
2023/04/18 04:11:41;;;;;;;1999.90;999.90;;;6.60;99.40;;;;;;5035095;28;20040;-76
2023/04/18 04:14:06;;;;;;;1999.90;999.90;;;6.60;99.40;;;;;;5032756;28;20040;-75
2023/04/18 04:16:32;;;;;;;1999.90;999.90;;;6.50;98.80;;;;;;5034292;28;20036;-74
2023/04/18 04:18:58;;;;;;;1999.90;999.90;;;6.50;98.50;;;;;;5030024;28;20041;-76
2023/04/18 04:21:23;;;;;;;1999.90;999.90;;;6.50;99.30;;;;;;5032695;28;20037;-75
2023/04/18 04:23:49;;;;;;;1999.90;999.90;;;6.70;99.30;;;;;;5067243;28;20571;-76
2023/04/18 04:26:15;;;;;;;1999.90;999.90;;;6.60;99.40;;;;;;5069337;28;20036;-75
2023/04/18 04:28:41;;;;;;;1999.90;999.90;;;6.70;99.10;;;;;;5079024;28;20021;-77
2023/04/18 04:31:09;;;;;;;1999.90;999.90;;;6.70;99.20;;;;;;5073231;28;20063;-76
2023/04/18 04:33:37;;;;;;;1999.90;999.90;;;6.70;99.30;;;;;;5078210;28;20032;-75
2023/04/18 04:36:05;;;;;;;1999.90;999.90;;;6.70;98.80;;;;;;5070847;28;20740;-75
2023/04/18 04:38:31;;;;;;;1999.90;999.90;;;6.80;99.00;;;;;;5072534;28;20482;-75
2023/04/18 04:40:57;;;;;;;1999.90;999.90;;;6.70;98.90;;;;;;5072129;28;20501;-75
2023/04/18 04:43:23;;;;;;;1999.90;999.90;;;6.90;98.90;;;;;;5069791;28;20033;-75
2023/04/18 04:45:51;;;;;;;1999.90;999.90;;;6.80;98.80;;;;;;5074464;28;20041;-75
2023/04/18 04:48:18;;;;;;;1999.90;999.90;;;6.80;98.70;;;;;;5070313;28;20044;-74
2023/04/18 04:50:51;;;;;;;1999.90;999.90;;;6.80;98.80;;;;;;5076445;28;20029;-76
2023/04/18 04:53:17;;;;;;;1999.90;999.90;;;6.80;98.90;;;;;;5069256;28;20402;-76
2023/04/18 04:55:43;;;;;;;1999.90;999.90;;;6.70;99.00;;;;;;5063571;28;20037;-75
2023/04/18 04:58:09;;;;;;;1999.90;999.90;;;6.70;98.80;;;;;;5064785;28;20036;-75
2023/04/18 05:00:34;;;;;;;1999.90;999.90;;;6.80;99.00;;;;;;5076594;28;20526;-75
2023/04/18 05:03:00;;;;;;;1999.90;999.90;;;6.80;98.80;;;;;;5027124;28;20050;-74
2023/04/18 05:05:27;;;;;;;1999.90;999.90;;;6.70;98.80;;;;;;5063151;28;20037;-75
2023/04/18 05:07:53;;;;;;;1999.90;999.90;;;6.80;98.20;;;;;;5060524;28;20074;-75
2023/04/18 05:10:19;;;;;;;1999.90;999.90;;;6.70;98.10;;;;;;5063126;28;20402;-75
2023/04/18 05:12:44;;;;;;;1999.90;999.90;;;6.70;98.10;;;;;;5065726;28;20584;-75
2023/04/18 05:15:11;;;;;;;1999.90;999.90;;;6.70;98.70;;;;;;5064208;28;20060;-75
2023/04/18 05:17:37;;;;;;;1999.90;999.90;;;6.60;98.90;;;;;;5064045;28;20043;-75
2023/04/18 05:20:03;;;;;;;1999.90;999.90;;;6.70;98.70;;;;;;5066840;28;20494;-75
2023/04/18 05:22:29;;;;;;;1999.90;999.90;;;6.70;98.80;;;;;;5036276;28;20059;-76
2023/04/18 05:24:54;;;;;;;1999.90;999.90;;;6.60;98.70;;;;;;5025045;28;20021;-76
2023/04/18 05:27:20;;;;;;;1999.90;999.90;;;6.70;98.80;;;;;;5024399;28;20068;-75
2023/04/18 05:29:48;;;;;;;1999.90;999.90;;;6.70;98.40;;;;;;5025722;28;20025;-77
2023/04/18 05:32:14;;;;;;;1999.90;999.90;;;6.70;98.20;;;;;;5022212;28;20110;-74
2023/04/18 05:34:39;;;;;;;1999.90;999.90;;;6.60;97.80;;;;;;5024128;28;20531;-74
2023/04/18 05:37:05;;;;;;;1999.90;999.90;;;6.60;97.70;;;;;;5023370;28;20095;-74
2023/04/18 05:39:31;;;;;;;1999.90;999.90;;;6.50;98.00;;;;;;5024324;28;20026;-75
2023/04/18 05:41:57;;;;;;;1999.90;999.90;;;6.50;98.20;;;;;;5024787;28;20036;-74
2023/04/18 05:44:23;;;;;;;1999.90;999.90;;;6.60;97.80;;;;;;5024981;28;20034;-74
2023/04/18 05:46:50;;;;;;;1999.90;999.90;;;6.50;98.10;;;;;;5032614;28;20434;-76
2023/04/18 05:49:19;;;;;;;1999.90;999.90;;;6.50;97.70;;;;;;5031286;28;20057;-76
2023/04/18 05:51:45;;;;;;;1999.90;999.90;;;6.60;97.70;;;;;;5030210;28;20026;-75
2023/04/18 05:54:11;;;;;;;1999.90;999.90;;;6.60;97.50;;;;;;5025721;28;20029;-74
2023/04/18 05:56:37;;;;;;;1999.90;999.90;;;6.60;97.60;;;;;;5027854;28;20158;-74
2023/04/18 05:59:03;;;;;;;1999.90;999.90;;;6.60;97.50;;;;;;5030910;28;20056;-74
2023/04/18 06:01:29;;;;;;;1999.90;999.90;;;6.70;97.40;;;;;;5024648;28;20495;-76
2023/04/18 06:03:54;;;;;;;1999.90;999.90;;;6.80;97.70;;;;;;5028842;28;20384;-76
2023/04/18 06:06:20;;;;;;;1999.90;999.90;;;6.80;97.70;;;;;;5024575;28;20427;-73
2023/04/18 06:08:46;;;;;;;1999.90;999.90;;;6.90;97.70;;;;;;5030946;28;20100;-74
2023/04/18 06:11:14;;;;;;;1999.90;999.90;;;7.00;97.30;;;;;;5027460;28;20571;-74
2023/04/18 06:13:40;;;;;;;1999.90;999.90;;;7.00;97.00;;;;;;5022566;28;20150;-76
2023/04/18 06:16:06;;;;;;;1999.90;999.90;;;7.10;96.90;;;;;;5028763;28;20436;-76
2023/04/18 06:18:32;;;;;;;1999.90;999.90;;;7.00;97.10;;;;;;5029021;28;20033;-74
2023/04/18 06:20:57;;;;;;;1999.90;999.90;;;7.00;97.00;;;;;;5027738;28;20043;-77
2023/04/18 06:23:23;;;;;;;1999.90;999.90;;;7.10;96.90;;;;;;5059551;28;20080;-76
2023/04/18 06:25:48;;;;;;;1999.90;999.90;;;7.20;97.00;;;;;;5071059;28;20044;-74
2023/04/18 06:28:15;;;;;;;1999.90;999.90;;;7.20;96.80;;;;;;5052425;28;20024;-74
2023/04/18 06:30:40;;;;;;;1999.90;999.90;;;7.30;96.50;;;;;;5062904;28;20032;-74
2023/04/18 06:33:09;;;;;;;1999.90;999.90;;;7.30;96.40;;;;;;5049606;28;20031;-74
2023/04/18 06:35:35;;;;;;;1999.90;999.90;;;7.50;96.10;;;;;;5051275;28;20040;-74
2023/04/18 06:38:00;;;;;;;1999.90;999.90;;;7.50;95.80;;;;;;5071886;28;20036;-75
2023/04/18 06:40:26;;;;;;;1999.90;999.90;;;7.70;95.60;;;;;;5072278;28;20033;-74
2023/04/18 06:42:52;;;;;;;1999.90;999.90;;;7.70;95.70;;;;;;5055828;28;20642;-74
2023/04/18 06:45:17;;;;;;;1999.90;999.90;;;7.60;95.50;;;;;;5070656;28;20409;-74
2023/04/18 06:47:43;;;;;;;1999.90;999.90;;;7.60;95.10;;;;;;5073233;28;20056;-74
2023/04/18 06:50:09;;;;;;;1999.90;999.90;;;7.80;95.30;;;;;;5054083;28;20823;-77
2023/04/18 06:52:39;;;;;;;1999.90;999.90;;;7.80;95.10;;;;;;5040217;28;20447;-73
2023/04/18 06:55:06;;;;;;;1999.90;999.90;;;7.80;94.80;;;;;;5066923;28;20078;-74
2023/04/18 06:57:32;;;;;;;1999.90;999.90;;;7.60;95.10;;;;;;5069175;28;20024;-74
2023/04/18 06:59:57;;;;;;;1999.90;999.90;;;7.60;94.80;;;;;;5057024;28;20036;-74
2023/04/18 07:02:23;;;;;;;1999.90;999.90;;;7.50;95.00;;;;;;5079830;28;20024;-74
2023/04/18 07:04:49;;;;;;;1999.90;999.90;;;7.60;95.00;;;;;;5049120;28;20025;-75
2023/04/18 07:07:14;;;;;;;1999.90;999.90;;;7.50;95.10;;;;;;5051108;28;20025;-74
2023/04/18 07:09:40;;;;;;;1999.90;999.90;;;7.50;95.30;;;;;;5068459;28;20076;-75
2023/04/18 07:12:06;;;;;;;1999.90;999.90;;;7.40;95.20;;;;;;5045010;28;20024;-76
2023/04/18 07:14:31;;;;;;;1999.90;999.90;;;7.50;95.30;;;;;;5066412;28;20740;-76
2023/04/18 07:16:57;;;;;;;1999.90;999.90;;;7.30;95.40;;;;;;5061479;28;20043;-75
2023/04/18 07:19:23;;;;;;;1999.90;999.90;;;7.30;95.20;;;;;;5049488;28;20027;-75
2023/04/18 07:21:49;;;;;;;1999.90;999.90;;;7.50;95.40;;;;;;5051057;28;20029;-75
2023/04/18 07:24:14;;;;;;;1999.90;999.90;;;7.60;95.40;;;;;;5049457;28;20041;-75
2023/04/18 07:26:40;;;;;;;1999.90;999.90;;;7.50;95.10;;;;;;5066754;28;20048;-75
2023/04/18 07:29:06;;;;;;;1999.90;999.90;;;7.50;95.30;;;;;;5077927;28;20028;-75
2023/04/18 07:31:31;;;;;;;1999.90;999.90;;;7.50;95.10;;;;;;5045765;28;20043;-75
2023/04/18 07:33:57;;;;;;;1999.90;999.90;;;7.50;95.40;;;;;;5044881;28;20062;-75
2023/04/18 07:36:23;;;;;;;1999.90;999.90;;;7.30;95.50;;;;;;5071725;28;20486;-75
2023/04/18 07:38:50;;;;;;;1999.90;999.90;;;7.30;95.40;;;;;;5074513;28;20459;-74
2023/04/18 07:41:16;;;;;;;1999.90;999.90;;;7.40;95.60;;;;;;5050702;28;20063;-75
2023/04/18 07:43:43;;;;;;;1999.90;999.90;;;7.50;95.40;;;;;;5072459;28;20044;-75
2023/04/18 07:46:09;;;;;;;1999.90;999.90;;;7.50;95.50;;;;;;5069584;28;20549;-75
2023/04/18 07:48:35;;;;;;;1999.90;999.90;;;7.50;95.40;;;;;;5074158;28;20445;-75
2023/04/18 07:51:02;;;;;;;1999.90;999.90;;;7.50;95.20;;;;;;5049026;28;20037;-75
2023/04/18 07:53:28;;;;;;;1999.90;999.90;;;7.50;95.10;;;;;;5068559;28;20021;-74
2023/04/18 07:55:54;;;;;;;1999.90;999.90;;;7.50;95.00;;;;;;5071085;28;20029;-75
2023/04/18 07:58:20;;;;;;;1999.90;999.90;;;7.50;95.20;;;;;;5040029;28;20122;-75
2023/04/18 08:00:45;;;;;;;1999.90;999.90;;;7.60;95.40;;;;;;5072260;28;20475;-75
2023/04/18 08:03:12;;;;;;;1999.90;999.90;;;7.60;95.20;;;;;;5055068;28;20502;-75
2023/04/18 08:05:38;;;;;;;1999.90;999.90;;;7.70;94.70;;;;;;5072806;28;20561;-75
2023/04/18 08:08:09;;;;;;;1999.90;999.90;;;7.60;94.60;;;;;;5075974;28;20078;-75
2023/04/18 08:10:35;;;;;;;1999.90;999.90;;;7.50;94.70;;;;;;5051120;28;20035;-75
2023/04/18 08:13:01;;;;;;;1999.90;999.90;;;7.60;94.60;;;;;;5070542;28;20029;-75
2023/04/18 08:15:27;;;;;;;1999.90;999.90;;;7.70;94.50;;;;;;5070154;28;20509;-74
2023/04/18 08:17:54;;;;;;;1999.90;999.90;;;7.80;94.60;;;;;;5055756;28;20048;-74
2023/04/18 08:20:20;;;;;;;1999.90;999.90;;;7.80;94.60;;;;;;5078082;28;20028;-74
2023/04/18 08:22:46;;;;;;;1999.90;999.90;;;7.90;94.10;;;;;;5064170;28;20044;-75
2023/04/18 08:25:12;;;;;;;1999.90;999.90;;;8.10;93.90;;;;;;5054050;28;20033;-75
2023/04/18 08:27:37;;;;;;;1999.90;999.90;;;8.20;93.50;;;;;;5051843;28;20020;-75
2023/04/18 08:30:04;;;;;;;1999.90;999.90;;;8.40;93.60;;;;;;5054544;28;20041;-75
2023/04/18 08:32:32;;;;;;;1999.90;999.90;;;8.60;93.30;;;;;;5052125;28;20042;-75
2023/04/18 08:34:58;;;;;;;1999.90;999.90;;;9.00;92.50;;;;;;5053300;28;20029;-77
2023/04/18 08:37:24;;;;;;;1999.90;999.90;;;9.40;91.60;;;;;;5052785;28;20045;-75
2023/04/18 08:39:49;;;;;;;1999.90;999.90;;;9.60;90.90;;;;;;5054547;28;20020;-75
2023/04/18 08:42:18;;;;;;;1999.90;999.90;;;9.90;90.50;;;;;;5049733;28;20029;-75
2023/04/18 08:44:45;;;;;;;1999.90;999.90;;;10.00;90.10;;;;;;5054440;28;20029;-75
2023/04/18 08:47:11;;;;;;;1999.90;999.90;;;10.40;89.30;;;;;;5051906;28;20025;-74
2023/04/18 08:49:38;;;;;;;1999.90;999.90;;;10.30;88.20;;;;;;5053843;28;20020;-75
2023/04/18 08:52:12;;;;;;;1999.90;999.90;;;10.10;89.10;;;;;;5053159;28;20033;-75
2023/04/18 08:54:41;;;;;;;1999.90;999.90;;;10.30;88.30;;;;;;5052627;28;20025;-75
2023/04/18 08:57:08;;;;;;;1999.90;999.90;;;10.50;88.60;;;;;;5052994;28;20036;-75
2023/04/18 08:59:34;;;;;;;1999.90;999.90;;;10.50;87.40;;;;;;5049738;28;20483;-75
2023/04/18 09:02:05;;;;;;;1999.90;999.90;;;10.30;87.90;;;;;;5055958;28;20041;-74
2023/04/18 09:04:38;;;;;;;1999.90;999.90;;;10.70;87.30;;;;;;5052921;28;20035;-75
2023/04/18 09:07:06;;;;;;;1999.90;999.90;;;11.00;87.10;;;;;;5056236;28;20036;-75
2023/04/18 09:09:53;;;;;;;1999.90;999.90;;;11.20;85.60;;;;;;5035954;28;20774;-76
2023/04/18 09:12:21;;;;;;;1999.90;999.90;;;11.20;85.00;;;;;;5069247;28;20029;-75
2023/04/18 09:14:56;;;;;;;1999.90;999.90;;;10.90;85.60;;;;;;5054215;28;20045;-75
2023/04/18 09:17:44;;;;;;;1999.90;999.90;;;10.60;84.20;;;;;;5055990;28;20029;-77
2023/04/18 09:20:12;;;;;;;1999.90;999.90;;;10.90;84.70;;;;;;5055843;28;20035;-75
2023/04/18 09:22:53;;;;;;;1999.90;999.90;;;11.40;82.30;;;;;;5046122;28;20155;-77
2023/04/18 09:25:38;;;;;;;1999.90;999.90;;;11.30;82.20;;;;;;5034083;28;20048;-77
2023/04/18 09:28:05;;;;;;;1999.90;999.90;;;11.20;82.70;;;;;;5036527;28;20017;-74
2023/04/18 09:30:35;;;;;;;1999.90;999.90;;;11.30;84.20;;;;;;5032564;28;20030;-76
2023/04/18 09:33:02;;;;;;;1999.90;999.90;;;11.20;82.70;;;;;;5029754;28;20036;-76
2023/04/18 09:35:28;;;;;;;1999.90;999.90;;;11.70;83.60;;;;;;5032916;28;20038;-76
2023/04/18 09:37:54;;;;;;;1999.90;999.90;;;11.30;81.20;;;;;;5035035;28;20392;-76
2023/04/18 09:40:21;;;;;;;1999.90;999.90;;;11.40;81.50;;;;;;5032539;28;20068;-75
2023/04/18 09:42:47;;;;;;;1999.90;999.90;;;12.00;80.30;;;;;;5036638;28;20025;-74
2023/04/18 09:45:14;;;;;;;1999.90;999.90;;;11.90;80.20;;;;;;5030132;28;20131;-75
2023/04/18 09:47:40;;;;;;;1999.90;999.90;;;11.80;79.50;;;;;;5035928;28;20493;-74
2023/04/18 09:50:08;;;;;;;1999.90;999.90;;;11.50;80.00;;;;;;5036013;28;20029;-74
2023/04/18 09:52:38;;;;;;;1999.90;999.90;;;11.50;81.40;;;;;;5035888;28;20142;-75
2023/04/18 09:55:05;;;;;;;;;;;11.40;81.90;;;;;;5029338;28;20034;-75
2023/04/18 09:57:33;;;;;;;1999.90;999.90;;;11.50;82.90;;;;;;5030479;28;19920;-75
2023/04/18 10:00:25;;;;;;;1999.90;999.90;;;11.50;81.90;;;;;;5033357;28;20104;-75
2023/04/18 10:03:07;;;;;;;1999.90;999.90;;;11.50;82.60;;;;;;5028479;28;20025;-75
2023/04/18 10:05:35;;;;;;;1999.90;999.90;;;11.60;80.80;;;;;;5032050;28;20113;-75
2023/04/18 10:08:02;;;;;;;1999.90;999.90;;;11.50;80.60;;;;;;5036072;28;20498;-75
2023/04/18 10:10:27;;;;;;;1999.90;999.90;;;11.50;79.90;;;;;;5033097;28;20033;-75
2023/04/18 10:12:58;;;;;;;1999.90;999.90;;;11.30;79.60;;;;;;5030123;28;20037;-75
2023/04/18 10:15:25;;;;;;;;;;;11.20;82.00;;;;;;5029173;28;20026;-75
2023/04/18 10:17:52;;;;;;;1999.90;999.90;;;11.30;80.40;;;;;;5031444;28;19913;-75
2023/04/18 10:20:21;;;;;;;1999.90;999.90;;;11.40;80.00;;;;;;5032647;28;20092;-75
2023/04/18 10:22:48;;;;;;;1999.90;999.90;;;11.90;79.60;;;;;;5050917;28;20052;-76
2023/04/18 10:25:37;;;;;;;1999.90;999.90;;;11.70;80.20;;;;;;5071979;28;20031;-75
2023/04/18 10:28:08;;;;;;;1999.90;999.90;;;12.20;79.70;;;;;;5074313;28;20513;-74
2023/04/18 10:30:39;;;;;;;1999.90;999.90;;;12.20;79.20;;;;;;5072587;28;20078;-77
2023/04/18 10:33:24;;;;;;;1999.90;999.90;;;11.50;81.00;;;;;;5070765;28;20509;-78
2023/04/18 10:36:02;;;;;;;1999.90;999.90;;;11.50;80.50;;;;;;5068112;28;20039;-74
2023/04/18 10:38:28;;;;;;;1999.90;999.90;;;12.10;79.10;;;;;;5069482;28;20040;-74
2023/04/18 10:41:15;;;;;;;1999.90;999.90;;;12.30;78.70;;;;;;5069134;28;20028;-74
2023/04/18 10:44:06;;;;;;;1999.90;999.90;;;12.30;77.80;;;;;;5072362;28;20099;-74
2023/04/18 10:46:36;;;;;;;1999.90;999.90;;;12.60;76.90;;;;;;5071456;28;20115;-75
2023/04/18 10:49:24;;;;;;;1999.90;999.90;;;12.70;76.20;;;;;;5070811;28;20060;-75
2023/04/18 10:52:08;;;;;;;1999.90;999.90;;;12.60;76.80;;;;;;5074275;28;20165;-75
2023/04/18 10:54:40;;;;;;;1999.90;999.90;;;12.10;77.50;;;;;;5054976;28;20036;-75
2023/04/18 10:57:10;;;;;;;1999.90;999.90;;;12.10;78.20;;;;;;5071747;28;20687;-76
2023/04/18 10:59:46;;;;;;;1999.90;999.90;;;12.50;78.00;;;;;;5039534;28;20058;-77
2023/04/18 11:02:28;;;;;;;1999.90;999.90;;;12.70;76.30;;;;;;5066134;28;20028;-78
2023/04/18 11:04:57;;;;;;;1999.90;999.90;;;12.70;76.40;;;;;;5066140;28;20033;-78
2023/04/18 11:07:36;;;;;;;1999.90;999.90;;;12.50;77.70;;;;;;5054539;28;20024;-78
2023/04/18 11:10:04;;;;;;;1999.90;999.90;;;13.30;77.00;;;;;;5071017;28;20509;-75
2023/04/18 11:12:35;;;;;;;1999.90;999.90;;;13.40;75.70;;;;;;5064644;28;20028;-75
2023/04/18 11:15:02;;;;;;;1999.90;999.90;;;13.70;73.60;;;;;;5065228;28;20485;-75
2023/04/18 11:17:33;;;;;;;1999.90;999.90;;;14.20;72.50;;;;;;5071090;28;20040;-75
2023/04/18 11:20:08;;;;;;;1999.90;999.90;;;15.10;69.70;;;;;;5070917;28;20433;-74
2023/04/18 11:22:56;;;;;;;1999.90;999.90;;;14.40;70.00;;;;;;5070405;28;20040;-77
2023/04/18 11:25:35;;;;;;;1999.90;999.90;;;13.90;72.90;;;;;;5065243;28;20119;-76
2023/04/18 11:28:02;;;;;;;1999.90;999.90;;;13.80;71.40;;;;;;5047126;28;20033;-77
2023/04/18 11:30:39;;;;;;;1999.90;999.90;;;13.50;73.70;;;;;;5049461;28;20118;-77
2023/04/18 11:33:10;;;;;;;1999.90;999.90;;;13.20;75.50;;;;;;5062143;28;20188;-76
2023/04/18 11:35:45;;;;;;;1999.90;999.90;;;13.30;75.70;;;;;;5052057;28;20040;-77
2023/04/18 11:38:12;;;;;;;1999.90;999.90;;;13.50;75.10;;;;;;5051376;28;20131;-77
2023/04/18 11:40:38;;;;;;;1999.90;999.90;;;13.70;74.00;;;;;;5047572;28;20528;-77
2023/04/18 11:43:06;;;;;;;1999.90;999.90;;;13.90;74.40;;;;;;5067959;28;20041;-77
2023/04/18 11:45:32;;;;;;;1999.90;999.90;;;14.20;71.80;;;;;;5047846;28;20037;-76
2023/04/18 11:47:59;;;;;;;1999.90;999.90;;;14.60;71.80;;;;;;5049408;28;20055;-76
2023/04/18 11:50:25;;;;;;;1999.90;999.90;;;14.10;71.80;;;;;;5046954;28;20093;-76
2023/04/18 11:52:52;;;;;;;1999.90;999.90;;;13.40;74.10;;;;;;5064855;28;20513;-77
2023/04/18 11:55:20;;;;;;;1999.90;999.90;;;13.30;72.90;;;;;;5068367;28;20029;-77
2023/04/18 11:58:00;;;;;;;1999.90;999.90;;;14.50;70.60;;;;;;5052795;28;20486;-78
2023/04/18 12:00:36;;;;;;;1999.90;999.90;;;14.50;69.80;;;;;;5065572;28;20171;-77
2023/04/18 12:03:08;;;;;;;1999.90;999.90;;;14.30;70.90;;;;;;5061619;28;20032;-78
2023/04/18 12:05:36;;;;;;;1999.90;999.90;;;14.90;71.00;;;;;;5068613;28;20474;-77
2023/04/18 12:08:20;;;;;;;1999.90;999.90;;;15.20;67.00;;;;;;5058060;28;20064;-78